Time;durP1;ratioP1;P1;durP2;ratioP2;P2;SDS_P1;SDS_P2;PMS_P1;PMS_P2;Temp;Humidity;BMP_temperature;BMP_pressure;BME280_temperature;BME280_humidity;BME280_pressure;Samples;Min_cycle;Max_cycle;Signal;HPM_P1;HPM_P2
2022/09/30 00:00:26;;;;;;;6.22;5.72;;;;;;;15.16;82.94;98437.40;1733563;81;20918;-72
2022/09/30 00:02:53;;;;;;;6.58;6.05;;;;;;;15.20;82.98;98441.80;1747875;81;21011;-72
2022/09/30 00:05:20;;;;;;;7.22;6.62;;;;;;;15.23;82.91;98445.34;1742537;81;20907;-72
2022/09/30 00:07:46;;;;;;;7.72;7.03;;;;;;;15.24;82.86;98441.63;1747940;81;21726;-72
2022/09/30 00:10:13;;;;;;;6.40;5.90;;;;;;;15.28;82.75;98450.84;1747772;81;20845;-72
2022/09/30 00:12:41;;;;;;;7.03;6.40;;;;;;;15.26;82.71;98447.58;1755715;80;21540;-72
2022/09/30 00:15:08;;;;;;;6.42;5.83;;;;;;;15.25;82.72;98450.77;1757843;80;21058;-73
2022/09/30 00:17:35;;;;;;;6.28;5.75;;;;;;;15.22;82.52;98444.55;1756216;80;21065;-72
2022/09/30 00:20:02;;;;;;;6.75;6.17;;;;;;;15.21;82.37;98446.09;1757117;80;21764;-72
2022/09/30 00:22:28;;;;;;;6.22;5.72;;;;;;;15.15;82.30;98453.16;1758977;80;21021;-73
2022/09/30 00:24:55;;;;;;;7.12;6.53;;;;;;;15.10;82.33;98448.17;1756491;80;20946;-72
2022/09/30 00:27:21;;;;;;;6.87;6.28;;;;;;;15.03;82.27;98445.59;1756941;80;21020;-73
2022/09/30 00:29:48;;;;;;;6.33;5.83;;;;;;;14.98;82.18;98448.63;1758552;80;21010;-72
2022/09/30 00:32:14;;;;;;;6.70;6.10;;;;;;;14.89;82.17;98447.30;1759168;80;21141;-72
2022/09/30 00:34:41;;;;;;;6.75;6.22;;;;;;;14.82;82.31;98445.51;1757705;80;20963;-72
2022/09/30 00:37:08;;;;;;;6.40;5.85;;;;;;;14.77;82.37;98456.58;1759224;80;20899;-72
2022/09/30 00:39:36;;;;;;;5.85;5.25;;;;;;;14.71;82.34;98462.81;1759083;80;20947;-72
2022/09/30 00:42:05;;;;;;;5.95;5.45;;;;;;;14.65;82.47;98465.05;1759249;80;20987;-72
2022/09/30 00:44:55;;;;;;;6.30;5.70;;;;;;;14.62;82.74;98479.69;1730983;81;21252;-72
2022/09/30 00:47:51;;;;;;;5.97;5.42;;;;;;;14.63;82.94;98479.15;1759004;80;20852;-72
2022/09/30 00:50:34;;;;;;;6.33;5.75;;;;;;;14.65;82.89;98493.16;1756934;80;21017;-72
2022/09/30 00:53:21;;;;;;;5.28;4.87;;;;;;;14.66;83.05;98492.92;1758611;80;21045;-72
2022/09/30 00:56:15;;;;;;;5.53;4.97;;;;;;;14.67;83.14;98496.42;1740671;80;20860;-72
2022/09/30 00:58:46;;;;;;;4.97;4.58;;;;;;;14.68;83.28;98501.55;1759279;80;21209;-72
2022/09/30 01:01:13;;;;;;;4.80;4.40;;;;;;;14.69;83.43;98505.88;1759219;80;20923;-72
2022/09/30 01:03:49;;;;;;;4.95;4.55;;;;;;;14.73;83.53;98504.38;1758120;80;20946;-72
2022/09/30 01:06:17;;;;;;;5.47;4.67;;;;;;;14.75;83.54;98498.82;1768137;80;20930;-72
2022/09/30 01:08:45;;;;;;;4.80;4.40;;;;;;;14.77;83.59;98501.58;1765986;80;20854;-72
2022/09/30 01:11:11;;;;;;;5.35;4.28;;;;;;;14.81;83.57;98512.13;1737450;80;21071;-72
2022/09/30 01:13:39;;;;;;;9.25;4.67;;;;;;;14.82;83.64;98512.45;1758781;80;21041;-71
2022/09/30 01:16:33;;;;;;;4.60;4.20;;;;;;;14.86;83.67;98511.46;1759238;80;20932;-71
2022/09/30 01:19:15;;;;;;;4.75;4.40;;;;;;;14.86;83.71;98506.66;1759305;80;20943;-72
2022/09/30 01:21:56;;;;;;;4.92;4.53;;;;;;;14.86;83.82;98503.43;1759300;80;21011;-72
2022/09/30 01:24:39;;;;;;;5.00;4.60;;;;;;;14.89;83.92;98503.54;1757987;80;21133;-72
2022/09/30 01:27:41;;;;;;;5.25;4.75;;;;;;;14.93;83.86;98504.72;1761994;80;22168;-72
2022/09/30 01:30:18;;;;;;;7.75;6.62;;;;;;;14.95;83.83;98506.66;1754441;80;20926;-72
2022/09/30 01:32:59;;;;;;;7.97;7.17;;;;;;;14.99;83.76;98508.66;1761707;80;20910;-72
2022/09/30 01:35:59;;;;;;;8.08;7.08;;;;;;;15.01;83.59;98509.80;1769207;80;20892;-72
2022/09/30 01:38:29;;;;;;;7.75;7.08;;;;;;;15.03;83.55;98507.70;1670961;84;22172;-72
2022/09/30 01:41:08;;;;;;;11.12;10.13;;;;;;;15.04;83.57;98503.48;1695215;84;20946;-72
2022/09/30 01:43:56;;;;;;;13.30;12.10;;;;;;;15.06;83.50;98506.75;1713619;81;21025;-72
2022/09/30 01:46:43;;;;;;;12.88;11.68;;;;;;;15.09;83.39;98498.28;1737521;81;21479;-72
2022/09/30 01:49:41;;;;;;;14.63;13.22;;;;;;;15.09;83.30;98504.15;1727554;81;21067;-72
2022/09/30 01:52:17;;;;;;;15.80;13.85;;;;;;;15.12;83.27;98502.37;1758484;80;21197;-72
2022/09/30 01:55:01;;;;;;;19.15;16.60;;;;;;;15.13;83.27;98506.66;1731653;81;20934;-72
2022/09/30 01:57:51;;;;;;;21.42;18.10;;;;;;;15.13;83.15;98514.19;1711836;82;21409;-72
2022/09/30 02:00:18;;;;;;;22.87;16.67;;;;;;;15.12;83.07;98510.41;1734970;81;20986;-72
2022/09/30 02:02:50;;;;;;;25.20;17.95;;;;;;;15.10;83.14;98515.14;1726936;81;20912;-73
2022/09/30 02:05:27;;;;;;;23.98;17.07;;;;;;;15.11;83.23;98513.59;1757589;80;21752;-73
2022/09/30 02:07:58;;;;;;;22.20;16.80;;;;;;;15.13;83.08;98509.34;1759572;80;20916;-72
2022/09/30 02:10:36;;;;;;;17.65;14.18;;;;;;;15.13;83.15;98518.72;1755106;80;20934;-72
2022/09/30 02:13:20;;;;;;;14.28;12.75;;;;;;;15.13;83.08;98528.09;1749029;81;20989;-72
2022/09/30 02:15:51;;;;;;;13.72;11.53;;;;;;;15.13;83.09;98534.80;1735113;81;20896;-73
2022/09/30 02:18:39;;;;;;;11.53;10.43;;;;;;;15.13;83.13;98538.81;1748003;81;21201;-73
2022/09/30 02:21:06;;;;;;;11.75;10.53;;;;;;;15.16;83.24;98545.06;1743506;80;21553;-73
2022/09/30 02:23:35;;;;;;;9.73;8.75;;;;;;;15.17;83.32;98549.40;1745663;81;20915;-73
2022/09/30 02:26:05;;;;;;;11.12;10.13;;;;;;;15.19;83.42;98548.65;1746150;81;21515;-73
2022/09/30 02:28:37;;;;;;;10.58;9.40;;;;;;;15.22;83.36;98546.88;1747848;81;20912;-73
2022/09/30 02:31:04;;;;;;;10.60;9.15;;;;;;;15.25;83.29;98546.43;1743804;81;21065;-73
2022/09/30 02:33:42;;;;;;;10.13;9.08;;;;;;;15.27;83.18;98548.36;1741380;81;20989;-73
2022/09/30 02:36:16;;;;;;;12.18;9.23;;;;;;;15.30;83.16;98551.94;1747014;81;20997;-73
2022/09/30 02:38:45;;;;;;;8.35;7.55;;;;;;;15.33;83.00;98550.12;1748150;81;20896;-73
2022/09/30 02:41:20;;;;;;;8.60;7.80;;;;;;;15.31;82.86;98546.34;1747852;81;20900;-73
2022/09/30 02:43:48;;;;;;;8.33;7.62;;;;;;;15.30;82.74;98544.70;1741607;81;21955;-73
2022/09/30 02:46:43;;;;;;;8.45;7.65;;;;;;;15.27;82.67;98539.80;1731944;81;20891;-73
2022/09/30 02:49:33;;;;;;;7.72;7.03;;;;;;;15.27;82.72;98540.33;1747858;81;21592;-73
2022/09/30 02:52:22;;;;;;;7.83;7.03;;;;;;;15.26;82.65;98543.52;1747452;81;20979;-73
2022/09/30 02:55:15;;;;;;;7.80;7.10;;;;;;;15.21;82.66;98548.72;1735805;81;21020;-73
2022/09/30 02:58:05;;;;;;;7.47;6.78;;;;;;;15.17;82.74;98548.85;1738575;81;21137;-72
2022/09/30 03:00:32;;;;;;;8.78;6.55;;;;;;;15.12;82.91;98551.92;1739260;81;20965;-72
2022/09/30 03:03:11;;;;;;;7.83;6.83;;;;;;;15.09;83.01;98555.86;1708817;82;21010;-72
2022/09/30 03:05:38;;;;;;;7.50;6.72;;;;;;;15.09;83.15;98563.08;1741109;81;21009;-72
2022/09/30 03:08:05;;;;;;;6.30;5.70;;;;;;;15.10;83.10;98563.36;1747893;81;21391;-73
2022/09/30 03:10:32;;;;;;;6.30;5.70;;;;;;;15.09;83.13;98569.77;1747895;81;21561;-72
2022/09/30 03:13:28;;;;;;;6.60;6.00;;;;;;;15.09;83.10;98569.26;1743751;81;20956;-72
2022/09/30 03:16:33;;;;;;;10.93;6.55;;;;;;;15.09;83.10;98579.15;1704265;83;20939;-72
2022/09/30 03:19:38;;;;;;;7.80;5.95;;;;;;;15.09;83.17;98584.50;1740460;81;20993;-73
2022/09/30 03:22:43;;;;;;;8.25;7.25;;;;;;;15.09;83.30;98585.84;1741367;81;20928;-73
2022/09/30 03:25:33;;;;;;;11.57;9.28;;;;;;;15.14;83.27;98591.36;1745224;81;21884;-72
2022/09/30 03:28:29;;;;;;;8.60;7.67;;;;;;;15.13;83.19;98599.08;1745039;81;21516;-72
2022/09/30 03:31:15;;;;;;;9.10;8.20;;;;;;;15.12;83.24;98598.26;1755840;80;20928;-72
2022/09/30 03:34:05;;;;;;;9.80;8.83;;;;;;;15.09;83.23;98600.58;1742278;81;20941;-72
2022/09/30 03:37:07;;;;;;;10.00;8.75;;;;;;;15.04;83.38;98592.38;1744945;81;20881;-72
2022/09/30 03:40:00;;;;;;;9.73;8.13;;;;;;;15.00;83.55;98598.69;1741188;81;21911;-74
2022/09/30 03:42:40;;;;;;;8.35;7.42;;;;;;;15.00;83.72;98602.70;1734393;81;20842;-73
2022/09/30 03:45:21;;;;;;;9.23;8.23;;;;;;;15.01;83.71;98604.87;1743188;81;20994;-73
2022/09/30 03:47:52;;;;;;;8.88;7.53;;;;;;;15.00;83.78;98607.23;1745182;81;20986;-73
2022/09/30 03:50:21;;;;;;;9.03;7.95;;;;;;;14.98;83.84;98613.34;1745366;81;21014;-73
2022/09/30 03:52:48;;;;;;;10.03;8.93;;;;;;;14.97;84.05;98610.34;1744297;81;21734;-72
2022/09/30 03:55:15;;;;;;;9.28;8.35;;;;;;;14.95;84.12;98610.58;1743867;81;20928;-72
2022/09/30 03:57:43;;;;;;;9.30;8.40;;;;;;;14.95;84.26;98617.78;1738691;81;21544;-72
2022/09/30 04:00:12;;;;;;;12.75;7.95;;;;;;;14.96;84.43;98627.47;1744478;81;21072;-72
2022/09/30 04:02:39;;;;;;;8.13;7.37;;;;;;;14.99;84.43;98639.09;1744511;81;21559;-73
2022/09/30 04:05:07;;;;;;;8.68;7.17;;;;;;;14.99;84.42;98645.79;1742371;81;20955;-73
2022/09/30 04:07:35;;;;;;;8.23;7.42;;;;;;;15.00;84.46;98641.54;1745145;81;20943;-72
2022/09/30 04:10:01;;;;;;;12.15;10.03;;;;;;;14.99;84.57;98636.41;1745306;81;21489;-72
2022/09/30 04:12:28;;;;;;;10.85;9.80;;;;;;;14.99;84.64;98633.73;1746524;81;21125;-72
2022/09/30 04:14:55;;;;;;;8.75;7.95;;;;;;;14.98;84.77;98635.59;1744468;80;20947;-72
2022/09/30 04:17:21;;;;;;;8.08;7.30;;;;;;;14.99;84.77;98633.19;1745797;80;21127;-72
2022/09/30 04:19:49;;;;;;;9.18;7.92;;;;;;;15.00;84.83;98636.70;1749097;80;20900;-73
2022/09/30 04:22:15;;;;;;;8.90;8.00;;;;;;;15.01;84.87;98633.82;1749044;80;20915;-73
2022/09/30 04:24:42;;;;;;;8.20;7.40;;;;;;;15.04;84.82;98636.58;1743220;80;21050;-73
2022/09/30 04:27:09;;;;;;;8.23;7.42;;;;;;;15.05;84.90;98643.04;1747500;80;21501;-72
2022/09/30 04:29:36;;;;;;;8.38;7.58;;;;;;;15.08;84.85;98652.50;1727743;81;21696;-73
2022/09/30 04:32:06;;;;;;;9.13;8.33;;;;;;;15.09;84.83;98648.28;1744388;80;20919;-73
2022/09/30 04:34:33;;;;;;;8.75;7.92;;;;;;;15.12;84.82;98649.70;1729564;81;20967;-73
2022/09/30 04:36:59;;;;;;;10.98;8.68;;;;;;;15.14;84.77;98656.98;1728167;81;20959;-72
2022/09/30 04:39:26;;;;;;;8.75;7.30;;;;;;;15.14;84.72;98659.67;1727896;81;21129;-73
2022/09/30 04:41:52;;;;;;;9.53;7.55;;;;;;;15.16;84.72;98658.92;1770231;80;21244;-72
2022/09/30 04:44:20;;;;;;;8.65;7.80;;;;;;;15.17;84.67;98667.27;1771452;80;20997;-72
2022/09/30 04:46:47;;;;;;;8.50;7.60;;;;;;;15.19;84.68;98666.53;1750484;80;21064;-73
2022/09/30 04:49:13;;;;;;;11.05;8.25;;;;;;;15.18;84.59;98670.23;1751642;80;21147;-72
2022/09/30 04:51:42;;;;;;;9.18;8.28;;;;;;;15.18;84.64;98676.42;1727426;82;21052;-73
2022/09/30 04:54:08;;;;;;;9.35;8.40;;;;;;;15.18;84.66;98679.61;1744670;80;21513;-72
2022/09/30 04:56:34;;;;;;;10.00;8.70;;;;;;;15.14;84.75;98679.76;1726340;81;21630;-72
2022/09/30 04:59:01;;;;;;;10.43;8.58;;;;;;;15.13;84.91;98680.79;1754139;81;20962;-72
2022/09/30 05:01:27;;;;;;;8.93;7.75;;;;;;;15.12;85.01;98688.00;1756361;80;21002;-72
2022/09/30 05:03:54;;;;;;;8.85;8.05;;;;;;;15.10;85.07;98685.23;1758129;80;21467;-73
2022/09/30 05:06:20;;;;;;;8.90;8.10;;;;;;;15.09;85.26;98689.80;1757521;80;21059;-73
2022/09/30 05:08:48;;;;;;;12.60;8.50;;;;;;;15.13;85.36;98690.16;1758938;80;21032;-74
2022/09/30 05:11:18;;;;;;;9.35;8.15;;;;;;;15.16;85.34;98688.39;1756232;80;20854;-71
2022/09/30 05:13:44;;;;;;;10.63;9.60;;;;;;;15.20;85.31;98697.11;1747408;80;21447;-73
2022/09/30 05:16:11;;;;;;;11.55;9.90;;;;;;;15.26;85.25;98708.81;1747094;81;21056;-73
2022/09/30 05:18:39;;;;;;;11.65;8.95;;;;;;;15.27;85.12;98701.09;1733055;81;21231;-73
2022/09/30 05:21:06;;;;;;;8.18;7.47;;;;;;;15.27;85.15;98698.41;1736434;81;21806;-74
2022/09/30 05:23:32;;;;;;;7.35;6.65;;;;;;;15.26;85.17;98702.11;1730259;81;22251;-73
2022/09/30 05:26:00;;;;;;;8.48;7.67;;;;;;;15.28;85.16;98713.42;1741221;82;20999;-74
2022/09/30 05:28:26;;;;;;;10.65;8.33;;;;;;;15.30;85.06;98718.07;1742663;82;21573;-72
2022/09/30 05:30:58;;;;;;;8.40;7.60;;;;;;;15.29;85.02;98723.95;1742007;82;21543;-73
2022/09/30 05:33:28;;;;;;;8.10;6.87;;;;;;;15.32;84.97;98726.70;1729802;82;21467;-72
2022/09/30 05:35:55;;;;;;;8.33;7.53;;;;;;;15.37;84.90;98726.36;1732454;82;20934;-74
2022/09/30 05:38:21;;;;;;;8.53;7.72;;;;;;;15.40;84.84;98727.78;1673072;82;21009;-73
2022/09/30 05:40:48;;;;;;;7.62;6.92;;;;;;;15.44;84.75;98730.30;1736817;81;20871;-74
2022/09/30 05:43:14;;;;;;;7.37;6.55;;;;;;;15.47;84.74;98725.05;1734257;81;21774;-72
2022/09/30 05:45:41;;;;;;;7.70;6.92;;;;;;;15.48;84.67;98727.53;1739073;81;21020;-72
2022/09/30 05:48:09;;;;;;;9.00;8.05;;;;;;;15.53;84.47;98736.25;1737828;81;21515;-73
2022/09/30 05:50:38;;;;;;;9.60;8.03;;;;;;;15.55;84.32;98732.31;1749136;81;21570;-72
2022/09/30 05:53:04;;;;;;;7.05;6.45;;;;;;;15.55;84.20;98734.99;1742927;81;20994;-72
2022/09/30 05:55:32;;;;;;;7.92;7.20;;;;;;;15.56;84.06;98743.86;1733576;81;20925;-74
2022/09/30 05:57:59;;;;;;;6.95;6.33;;;;;;;15.53;84.17;98738.42;1732220;81;21611;-72
2022/09/30 06:00:25;;;;;;;7.37;6.67;;;;;;;15.55;84.24;98735.50;1732982;81;21136;-74
2022/09/30 06:02:52;;;;;;;7.55;6.85;;;;;;;15.59;84.12;98740.75;1737394;81;21017;-74
2022/09/30 06:05:18;;;;;;;7.78;6.67;;;;;;;15.64;84.06;98743.58;1731123;81;20986;-73
2022/09/30 06:07:45;;;;;;;7.30;6.12;;;;;;;15.69;83.91;98740.55;1735980;81;21862;-73
2022/09/30 06:10:13;;;;;;;7.30;6.60;;;;;;;15.71;83.67;98741.14;1731541;81;21486;-72
2022/09/30 06:12:40;;;;;;;7.05;6.33;;;;;;;15.72;83.48;98741.97;1728415;81;20978;-73
2022/09/30 06:15:08;;;;;;;7.58;6.87;;;;;;;15.71;83.35;98741.14;1725702;82;21594;-73
2022/09/30 06:17:36;;;;;;;7.97;7.22;;;;;;;15.73;83.27;98739.56;1710645;82;21092;-77
2022/09/30 06:20:04;;;;;;;8.85;7.53;;;;;;;15.76;83.10;98740.47;1710562;82;21236;-72
2022/09/30 06:22:34;;;;;;;8.05;7.25;;;;;;;15.79;82.89;98745.39;1721631;82;21563;-73
2022/09/30 06:25:05;;;;;;;7.92;7.15;;;;;;;15.75;82.78;98748.20;1734027;80;21457;-73
2022/09/30 06:27:37;;;;;;;7.70;7.00;;;;;;;15.75;82.73;98748.20;1750656;82;20902;-70
2022/09/30 06:30:05;;;;;;;7.45;6.75;;;;;;;15.77;82.62;98750.17;1729740;82;21042;-70
2022/09/30 06:32:32;;;;;;;7.42;6.72;;;;;;;15.78;82.52;98753.95;1734996;82;21820;-75
2022/09/30 06:34:58;;;;;;;7.15;6.53;;;;;;;15.78;82.42;98760.66;1732608;82;20855;-70
2022/09/30 06:37:25;;;;;;;7.62;6.92;;;;;;;15.77;82.50;98759.00;1719662;82;20940;-71
2022/09/30 06:39:52;;;;;;;8.15;6.55;;;;;;;15.77;82.44;98761.69;1735875;82;21521;-70
2022/09/30 06:42:18;;;;;;;6.92;6.22;;;;;;;15.80;82.32;98762.59;1751340;82;20855;-72
2022/09/30 06:44:45;;;;;;;6.28;5.78;;;;;;;15.79;82.20;98764.99;1751570;82;21287;-71
2022/09/30 06:47:14;;;;;;;7.83;5.78;;;;;;;15.83;82.18;98767.52;1741035;82;21524;-72
2022/09/30 06:49:41;;;;;;;6.90;6.25;;;;;;;15.87;81.89;98771.42;1750418;82;20978;-73
2022/09/30 06:52:11;;;;;;;6.42;5.92;;;;;;;15.87;81.75;98775.95;1726863;82;21012;-71
2022/09/30 06:54:43;;;;;;;7.12;6.28;;;;;;;15.87;81.52;98774.09;1723615;82;20987;-72
2022/09/30 06:57:10;;;;;;;7.25;6.55;;;;;;;15.87;81.27;98779.47;1702937;82;21948;-71
2022/09/30 06:59:37;;;;;;;7.42;6.75;;;;;;;15.86;81.09;98776.98;1732393;82;21463;-72
2022/09/30 07:02:04;;;;;;;7.05;6.45;;;;;;;15.88;80.94;98784.28;1738215;82;21002;-72
2022/09/30 07:04:31;;;;;;;8.23;7.28;;;;;;;;;;1718652;82;20963;-73
2022/09/30 07:06:57;;;;;;;7.65;6.92;;;;;;;15.90;80.63;98799.66;1717126;82;21048;-73
2022/09/30 07:09:24;;;;;;;10.28;8.25;;;;;;;15.91;80.56;98799.94;1716716;82;21500;-73
2022/09/30 07:11:51;;;;;;;8.43;7.62;;;;;;;15.92;80.50;98800.25;1716798;82;20998;-71
2022/09/30 07:14:17;;;;;;;7.25;6.65;;;;;;;15.92;80.40;98805.10;1723661;81;20863;-70
2022/09/30 07:16:44;;;;;;;6.80;6.20;;;;;;;15.93;80.33;98807.23;1734134;81;21055;-72
2022/09/30 07:19:11;;;;;;;7.72;6.70;;;;;;;15.94;80.23;98799.50;1729404;81;21060;-72
2022/09/30 07:21:38;;;;;;;6.15;5.40;;;;;;;15.95;79.94;98807.86;1731513;81;21064;-72
2022/09/30 07:24:04;;;;;;;6.60;6.05;;;;;;;15.90;79.93;98801.80;1735034;81;20943;-72
2022/09/30 07:26:31;;;;;;;6.97;6.30;;;;;;;15.89;79.99;98802.03;1757943;80;21535;-73
2022/09/30 07:28:58;;;;;;;5.92;5.42;;;;;;;15.93;79.88;98810.75;1720786;81;20943;-74
2022/09/30 07:31:25;;;;;;;6.87;6.28;;;;;;;15.93;79.92;98809.92;1708472;83;20945;-74
2022/09/30 07:33:52;;;;;;;6.85;6.25;;;;;;;15.94;79.85;98811.58;1767769;80;21216;-71
2022/09/30 07:36:23;;;;;;;7.30;6.70;;;;;;;15.93;79.88;98816.62;1776312;80;20923;-72
2022/09/30 07:38:50;;;;;;;7.12;6.42;;;;;;;15.92;79.81;98818.52;1776441;80;21444;-75
2022/09/30 07:41:23;;;;;;;7.12;6.50;;;;;;;15.91;79.80;98812.01;1776347;80;20867;-70
2022/09/30 07:43:49;;;;;;;7.87;6.97;;;;;;;15.92;79.83;98811.80;1756341;80;20886;-72
2022/09/30 07:46:19;;;;;;;6.53;5.92;;;;;;;15.93;79.87;98817.45;1776553;80;21202;-73
2022/09/30 07:48:49;;;;;;;6.78;6.08;;;;;;;15.98;79.79;98828.34;1723749;82;21421;-72
2022/09/30 07:51:23;;;;;;;6.28;5.75;;;;;;;16.02;79.75;98824.20;1776627;80;20891;-72
2022/09/30 07:53:55;;;;;;;5.78;5.28;;;;;;;16.06;79.58;98820.02;1750457;80;21036;-72
2022/09/30 07:56:23;;;;;;;5.50;5.00;;;;;;;16.10;79.40;98823.09;1753334;81;20898;-72
2022/09/30 07:58:54;;;;;;;5.53;5.03;;;;;;;16.11;79.17;98822.57;1727612;81;22149;-72
2022/09/30 08:01:21;;;;;;;5.50;4.90;;;;;;;16.11;78.94;98826.08;1737128;81;21057;-73
2022/09/30 08:03:50;;;;;;;5.33;4.92;;;;;;;16.13;78.76;98823.16;1738616;81;20867;-74
2022/09/30 08:06:17;;;;;;;5.25;4.75;;;;;;;16.06;78.81;98821.36;1701620;82;21312;-73
2022/09/30 08:08:45;;;;;;;5.00;4.60;;;;;;;16.11;78.75;98823.91;1740094;81;21481;-76
2022/09/30 08:11:13;;;;;;;5.92;5.42;;;;;;;16.14;78.62;98830.98;1717876;82;21082;-75
2022/09/30 08:13:40;;;;;;;5.20;4.70;;;;;;;16.13;78.53;98832.55;1726050;81;21152;-75
2022/09/30 08:16:07;;;;;;;5.50;4.87;;;;;;;16.11;78.51;98831.97;1729219;81;21373;-77
2022/09/30 08:18:34;;;;;;;5.75;4.80;;;;;;;16.09;78.40;98830.83;1733568;82;21445;-74
2022/09/30 08:21:04;;;;;;;4.75;4.35;;;;;;;16.09;78.41;98834.84;1719797;82;20966;-73
2022/09/30 08:23:30;;;;;;;4.45;4.05;;;;;;;16.15;78.45;98831.81;1720615;82;21129;-74
2022/09/30 08:26:06;;;;;;;5.92;4.78;;;;;;;16.25;78.27;98841.51;1726159;81;21458;-70
2022/09/30 08:28:33;;;;;;;4.53;4.12;;;;;;;16.26;78.12;98835.11;1750620;81;20997;-72
2022/09/30 08:31:13;;;;;;;4.00;3.70;;;;;;;16.25;77.82;98833.45;1761121;80;21009;-70
2022/09/30 08:33:40;;;;;;;4.87;4.08;;;;;;;16.30;77.84;98843.00;1759394;80;21001;-70
2022/09/30 08:36:10;;;;;;;4.40;4.00;;;;;;;16.36;77.56;98833.55;1754276;81;21133;-72
2022/09/30 08:38:38;;;;;;;4.12;3.80;;;;;;;16.41;77.55;98830.20;1722523;82;20927;-69
2022/09/30 08:41:32;;;;;;;4.72;4.22;;;;;;;16.46;77.34;98831.69;1737071;81;21068;-74
2022/09/30 08:44:34;;;;;;;4.10;3.80;;;;;;;16.48;77.08;98827.73;1734003;81;20937;-72
2022/09/30 08:47:15;;;;;;;4.12;3.72;;;;;;;16.52;76.88;98828.98;1754403;80;21443;-74
2022/09/30 08:49:50;;;;;;;4.85;3.95;;;;;;;16.53;76.61;98831.11;1751388;80;21170;-74
2022/09/30 08:52:30;;;;;;;4.53;4.12;;;;;;;16.48;76.40;98833.63;1776394;80;20983;-73
2022/09/30 08:54:56;;;;;;;4.40;3.85;;;;;;;16.45;76.43;98832.75;1773521;80;20983;-72
2022/09/30 08:57:23;;;;;;;3.85;3.55;;;;;;;16.36;76.37;98842.13;1721311;81;20971;-72
2022/09/30 08:59:57;;;;;;;5.05;4.65;;;;;;;16.26;76.54;98836.45;1720566;81;20962;-74
2022/09/30 09:02:29;;;;;;;4.37;3.98;;;;;;;16.22;76.69;98832.03;1727552;81;21232;-72
2022/09/30 09:05:00;;;;;;;4.30;4.00;;;;;;;16.16;76.88;98832.95;1721973;81;20906;-73
2022/09/30 09:07:41;;;;;;;4.28;3.87;;;;;;;16.15;77.00;98827.27;1721885;81;20980;-74
2022/09/30 09:10:33;;;;;;;3.98;3.67;;;;;;;16.22;77.14;98821.81;1720878;81;20875;-73
2022/09/30 09:13:14;;;;;;;4.20;3.90;;;;;;;16.33;77.03;98826.46;1729606;81;21508;-71
2022/09/30 09:15:53;;;;;;;4.28;3.87;;;;;;;16.44;76.64;98831.92;1732732;81;21268;-72
2022/09/30 09:18:37;;;;;;;4.08;3.77;;;;;;;16.54;76.38;98837.63;1768653;80;21546;-73
2022/09/30 09:21:20;;;;;;;4.10;3.83;;;;;;;16.65;76.01;98838.23;1772741;80;21000;-71
2022/09/30 09:23:51;;;;;;;4.10;3.70;;;;;;;16.73;75.78;98846.50;1771815;80;20934;-72
2022/09/30 09:26:17;;;;;;;7.25;4.05;;;;;;;16.79;75.40;98849.61;1740792;80;21446;-73
2022/09/30 09:28:53;;;;;;;4.12;3.83;;;;;;;16.82;75.01;98855.05;1740429;80;21249;-73
2022/09/30 09:31:19;;;;;;;3.87;3.45;;;;;;;16.91;74.82;98855.88;1739633;80;20895;-74
2022/09/30 09:33:46;;;;;;;5.90;5.42;;;;;;;17.07;74.37;98859.82;1752706;80;20998;-73
2022/09/30 09:36:39;;;;;;;4.20;3.90;;;;;;;17.26;74.09;98853.34;1742937;80;20942;-73
2022/09/30 09:39:19;;;;;;;3.85;3.55;;;;;;;17.44;73.48;98859.21;1741965;80;21433;-71
2022/09/30 09:42:13;;;;;;;3.60;3.30;;;;;;;17.68;72.76;98870.34;1742574;80;21198;-73
2022/09/30 09:45:05;;;;;;;3.50;3.20;;;;;;;17.82;71.97;98865.06;1758829;80;21322;-74
2022/09/30 09:47:32;;;;;;;3.90;3.60;;;;;;;17.83;71.46;98867.51;1740856;81;20987;-74
2022/09/30 09:50:04;;;;;;;3.30;3.10;;;;;;;17.83;71.19;98862.67;1742069;81;20867;-74
2022/09/30 09:53:22;;;;;;;3.80;3.50;;;;;;;17.91;71.01;98860.97;1737713;81;20985;-73
2022/09/30 09:55:50;;;;;;;4.05;3.75;;;;;;;18.04;70.74;98858.05;1740319;80;25484;-73
2022/09/30 09:58:16;;;;;;;4.50;4.10;;;;;;;18.17;69.96;98853.80;1741085;80;20899;-73
2022/09/30 10:03:20;;;;;;;4.42;4.03;;;;;;;18.30;69.49;98862.98;1739279;80;20948;-73
2022/09/30 10:06:07;;;;;;;4.85;4.45;;;;;;;18.30;69.05;98860.28;1742021;80;20967;-73
2022/09/30 10:08:38;;;;;;;4.72;4.17;;;;;;;18.39;68.90;98861.59;1737076;80;20988;-73
2022/09/30 10:11:22;;;;;;;6.60;4.75;;;;;;;18.48;68.30;98862.88;1743200;80;21410;-71
2022/09/30 10:13:50;;;;;;;5.45;5.00;;;;;;;18.48;67.97;98859.39;1742851;80;20996;-71
2022/09/30 10:16:34;;;;;;;4.80;4.37;;;;;;;18.50;67.93;98865.36;1749413;80;21540;-74
2022/09/30 10:19:03;;;;;;;10.10;9.30;;;;;;;18.58;67.76;98861.48;1748531;80;21024;-71
2022/09/30 10:21:31;;;;;;;5.25;4.83;;;;;;;18.70;67.38;98859.05;1742940;80;20994;-72
2022/09/30 10:23:58;;;;;;;5.47;5.00;;;;;;;18.77;67.14;98858.39;1750928;80;20964;-73
2022/09/30 10:26:27;;;;;;;5.53;4.17;;;;;;;18.83;67.24;98858.80;1742161;80;20884;-73
2022/09/30 10:28:59;;;;;;;5.55;4.75;;;;;;;19.01;66.84;98863.19;1748009;80;20989;-73
2022/09/30 10:31:34;;;;;;;7.72;4.42;;;;;;;19.23;66.42;98862.84;1773022;80;20879;-75
2022/09/30 10:34:11;;;;;;;5.85;4.28;;;;;;;19.46;65.73;98858.72;1734907;82;21138;-72
2022/09/30 10:36:39;;;;;;;5.17;4.47;;;;;;;19.66;64.90;98853.68;1700789;83;21330;-74
2022/09/30 10:39:10;;;;;;;5.25;4.85;;;;;;;19.75;64.27;98863.55;1765834;80;21073;-72
2022/09/30 10:41:37;;;;;;;4.55;4.15;;;;;;;19.71;63.93;98867.78;1741872;80;21493;-73
2022/09/30 10:44:08;;;;;;;4.97;4.58;;;;;;;19.76;63.75;98872.47;1751608;80;21005;-74
2022/09/30 10:46:37;;;;;;;5.22;4.83;;;;;;;19.79;63.34;98868.73;1722370;80;21819;-74
2022/09/30 10:49:21;;;;;;;4.95;4.35;;;;;;;19.79;63.18;98868.73;1759568;80;21007;-73
2022/09/30 10:51:47;;;;;;;6.58;4.12;;;;;;;19.89;63.07;98871.63;1749442;80;20924;-75
2022/09/30 10:54:37;;;;;;;5.12;4.65;;;;;;;20.06;62.66;98874.31;1758103;80;20991;-72
2022/09/30 10:57:14;;;;;;;4.62;4.22;;;;;;;20.17;62.19;98867.49;1752618;80;20875;-71
2022/09/30 10:59:40;;;;;;;5.40;4.90;;;;;;;20.25;61.95;98872.52;1726083;80;21546;-72
2022/09/30 11:02:36;;;;;;;5.15;4.75;;;;;;;20.31;61.93;98876.08;1757016;80;20954;-72
2022/09/30 11:05:18;;;;;;;5.70;5.13;;;;;;;20.41;61.58;98874.09;1759126;80;20978;-74
2022/09/30 11:08:05;;;;;;;5.08;4.67;;;;;;;20.45;61.09;98872.52;1755747;80;20979;-72
2022/09/30 11:11:14;;;;;;;5.03;4.55;;;;;;;20.50;60.85;98873.41;1754468;80;20930;-74
2022/09/30 11:14:07;;;;;;;4.83;4.35;;;;;;;20.57;60.52;98865.14;1773917;80;21208;-74
2022/09/30 11:16:51;;;;;;;7.80;5.47;;;;;;;20.66;60.17;98865.80;1750000;80;20987;-73
2022/09/30 11:19:29;;;;;;;4.58;4.28;;;;;;;20.66;59.83;98868.50;1756584;81;20907;-73
2022/09/30 11:22:23;;;;;;;5.42;4.78;;;;;;;20.70;59.72;98861.52;1755846;81;20862;-73
2022/09/30 11:24:51;;;;;;;4.80;4.40;;;;;;;20.78;59.50;98864.31;1750864;80;21248;-72
2022/09/30 11:27:48;;;;;;;4.80;4.33;;;;;;;20.83;59.30;98863.85;1731050;81;21105;-71
2022/09/30 11:30:41;;;;;;;5.33;4.50;;;;;;;20.84;59.09;98856.03;1758038;81;21578;-72
2022/09/30 11:33:16;;;;;;;4.53;4.22;;;;;;;20.86;59.18;98855.24;1639157;84;20907;-74
2022/09/30 11:36:04;;;;;;;4.70;4.30;;;;;;;20.86;58.72;98859.30;1683389;84;21540;-71
2022/09/30 11:39:00;;;;;;;4.15;3.77;;;;;;;20.84;58.62;98857.39;1697752;81;20990;-73
2022/09/30 11:41:38;;;;;;;4.25;3.95;;;;;;;20.78;58.50;98857.03;1759733;81;21125;-72
2022/09/30 11:44:36;;;;;;;4.05;3.75;;;;;;;20.73;58.50;98855.61;1754592;81;20907;-73
2022/09/30 11:47:18;;;;;;;4.42;4.08;;;;;;;20.73;58.34;98846.16;1750264;81;20930;-73
2022/09/30 11:50:31;;;;;;;3.52;3.33;;;;;;;20.80;58.31;98847.34;1726889;81;21496;-73
2022/09/30 11:53:06;;;;;;;4.80;3.58;;;;;;;20.85;58.18;98854.98;1745194;81;21452;-72
2022/09/30 11:55:49;;;;;;;3.87;3.52;;;;;;;20.88;58.21;98852.31;1743842;81;21945;-72
2022/09/30 11:58:19;;;;;;;3.75;3.47;;;;;;;20.93;58.23;98845.61;1708667;82;20939;-72
2022/09/30 12:00:51;;;;;;;4.12;3.83;;;;;;;20.97;58.14;98845.91;1709481;82;21703;-74
2022/09/30 12:03:37;;;;;;;5.60;4.30;;;;;;;21.00;57.97;98841.34;1704570;82;20990;-71
2022/09/30 12:06:13;;;;;;;4.10;3.80;;;;;;;21.01;57.73;98832.18;1722270;81;20979;-72